ENOV/HOV METAR and TAF weather

Enter ICAO airport designator
Station Type Date Time Source
ENOV METAR 2020/07/05 15:20 UTC NOAA

ENOV 051520Z 26004KT 9999 -RA FEW013 BKN051 13/11 Q0983 RMK WIND 2175FT 09003KT


Station Type Date Time Source
ENOV Decoded METAR 2020/07/05 15:20 UTC NOAA

Orsta-Volda / Hovden, Norway (ENOV) 62-11N 006-04E 74M
Jul 05, 2020 - 11:20 AM EDT / 2020.07.05 1520 UTC
Wind: from the W (260 degrees) at 5 MPH (4 KT):0
Visibility: greater than 7 mile(s):0
Sky conditions: mostly cloudy
Weather: light rain
Temperature: 55 F (13 C)
Dew Point: 51 F (11 C)
Relative Humidity: 87%
Pressure (altimeter): 29.03 in. Hg (0983 hPa)
ob: ENOV 051520Z 26004KT 9999 -RA FEW013 BKN051 13/11 Q0983 RMK WIND 2175FT 09003KT
cycle: 15

Station Type Date Time Source
ENOV TAF UTC NOAA

Error!

Example: see airport list